Time;durP1;ratioP1;P1;durP2;ratioP2;P2;SDS_P1;SDS_P2;PMS_P1;PMS_P2;Temp;Humidity;BMP_temperature;BMP_pressure;BME280_temperature;BME280_humidity;BME280_pressure;Samples;Min_cycle;Max_cycle;Signal;HPM_P1;HPM_P2
2021/05/30 00:00:53;;;;;;;5.43;3.90;;;;;16.70;102713.00;;;;5080498;28;20225;-76
2021/05/30 00:03:20;;;;;;;4.38;3.90;;;;;16.70;102713.00;;;;5071894;28;20198;-76
2021/05/30 00:05:47;;;;;;;6.97;4.47;;;;;16.70;102710.00;;;;5074792;28;20194;-76
2021/05/30 00:08:14;;;;;;;5.03;3.53;;;;;16.60;102710.00;;;;5087180;28;20226;-76
2021/05/30 00:10:41;;;;;;;3.95;3.30;;;;;16.60;102707.00;;;;5080181;28;20223;-76
2021/05/30 00:13:08;;;;;;;4.88;3.60;;;;;16.60;102710.00;;;;5068082;28;20206;-76
2021/05/30 00:15:35;;;;;;;5.60;4.50;;;;;16.60;102715.00;;;;5067941;28;20265;-76
2021/05/30 00:18:03;;;;;;;5.32;3.90;;;;;16.60;102718.00;;;;5068174;28;20580;-76
2021/05/30 00:20:29;;;;;;;5.05;3.50;;;;;16.60;102722.00;;;;5066533;28;20234;-76
2021/05/30 00:22:56;;;;;;;4.63;3.63;;;;;16.60;102718.00;;;;5076857;28;20665;-76
2021/05/30 00:25:23;;;;;;;6.18;3.75;;;;;16.50;102720.00;;;;5071382;28;20207;-76
2021/05/30 00:27:50;;;;;;;5.38;3.78;;;;;16.50;102716.00;;;;5067697;28;20227;-76
2021/05/30 00:30:17;;;;;;;5.32;3.75;;;;;16.50;102716.00;;;;5067053;28;20199;-76
2021/05/30 00:32:44;;;;;;;7.28;4.32;;;;;16.40;102713.00;;;;5067269;28;20207;-76
2021/05/30 00:35:12;;;;;;;5.15;3.55;;;;;16.40;102708.00;;;;5067711;28;20567;-76
2021/05/30 00:37:38;;;;;;;5.53;3.70;;;;;16.40;102708.00;;;;5071472;28;20206;-76
2021/05/30 00:40:07;;;;;;;4.35;3.50;;;;;16.30;102709.00;;;;5072035;28;20199;-76
2021/05/30 00:42:33;;;;;;;4.70;3.45;;;;;16.30;102713.00;;;;5071152;28;20198;-76
2021/05/30 00:45:00;;;;;;;5.60;3.65;;;;;16.30;102717.00;;;;5089052;28;20420;-75
2021/05/30 00:47:27;;;;;;;6.47;4.20;;;;;16.20;102713.00;;;;5091097;28;20202;-76
2021/05/30 00:49:54;;;;;;;4.47;3.50;;;;;16.20;102717.00;;;;5080211;28;20325;-76
2021/05/30 00:52:21;;;;;;;5.63;3.45;;;;;16.20;102719.00;;;;5070074;28;20191;-76
2021/05/30 00:54:48;;;;;;;3.97;3.25;;;;;16.20;102717.00;;;;5084769;28;20251;-76
2021/05/30 00:57:15;;;;;;;5.43;3.55;;;;;16.20;102722.00;;;;5078479;28;20206;-76
2021/05/30 00:59:42;;;;;;;4.90;3.50;;;;;16.10;102724.00;;;;5070716;28;20218;-76
2021/05/30 01:02:09;;;;;;;4.82;3.35;;;;;16.10;102725.00;;;;5070617;28;20210;-76
2021/05/30 01:04:36;;;;;;;6.07;3.92;;;;;16.10;102722.00;;;;5070412;28;20682;-76
2021/05/30 01:07:03;;;;;;;4.95;3.65;;;;;16.10;102722.00;;;;5071061;28;20199;-76
2021/05/30 01:09:33;;;;;;;4.07;3.20;;;;;16.10;102717.00;;;;5080955;28;20249;-76
2021/05/30 01:12:02;;;;;;;6.60;3.63;;;;;16.00;102719.00;;;;5090672;28;20198;-76
2021/05/30 01:14:29;;;;;;;6.72;4.53;;;;;16.00;102719.00;;;;5076049;28;20370;-76
2021/05/30 01:16:57;;;;;;;6.15;3.92;;;;;16.00;102716.00;;;;5070558;28;20553;-76
2021/05/30 01:19:28;;;;;;;5.25;3.08;;;;;16.00;102715.00;;;;5070519;28;20206;-76
2021/05/30 01:21:58;;;;;;;3.60;3.22;;;;;15.90;102720.00;;;;5070315;28;20290;-76
2021/05/30 01:24:26;;;;;;;5.18;4.30;;;;;16.00;102708.00;;;;5083323;28;20248;-76
2021/05/30 01:26:53;;;;;;;5.43;3.53;;;;;16.00;102712.00;;;;5090917;28;20190;-76
2021/05/30 01:29:20;;;;;;;6.32;3.63;;;;;15.90;102715.00;;;;5085230;28;20226;-76
2021/05/30 01:31:47;;;;;;;5.15;3.70;;;;;15.90;102711.00;;;;5071209;28;20212;-76
2021/05/30 01:34:14;;;;;;;6.13;3.80;;;;;15.90;102704.00;;;;5070174;28;20305;-76
2021/05/30 01:36:41;;;;;;;6.43;4.20;;;;;15.90;102707.00;;;;5069506;28;20195;-76
2021/05/30 01:39:08;;;;;;;4.88;3.75;;;;;15.80;102699.00;;;;5077816;28;20287;-76
2021/05/30 01:41:35;;;;;;;5.82;3.95;;;;;15.80;102709.00;;;;5089896;28;20206;-76
2021/05/30 01:44:02;;;;;;;4.65;3.55;;;;;15.80;102705.00;;;;5078040;28;20207;-76
2021/05/30 01:46:29;;;;;;;6.63;3.80;;;;;15.80;102710.00;;;;5079646;28;20186;-76
2021/05/30 01:48:56;;;;;;;5.28;3.65;;;;;15.80;102708.00;;;;5088528;28;20233;-76
2021/05/30 01:51:23;;;;;;;5.50;3.78;;;;;15.80;102703.00;;;;5089690;28;20259;-76
2021/05/30 01:53:52;;;;;;;7.13;3.95;;;;;15.80;102698.00;;;;5080335;28;20202;-76
2021/05/30 01:59:05;;;;;;;5.75;3.83;;;;;15.70;102694.00;;;;5089268;28;20196;-76
2021/05/30 02:01:33;;;;;;;7.63;4.45;;;;;15.70;102700.00;;;;5089591;28;20202;-76
2021/05/30 02:04:03;;;;;;;4.63;3.70;;;;;15.70;102700.00;;;;5086266;28;20198;-76
2021/05/30 02:06:30;;;;;;;5.63;3.85;;;;;15.70;102695.00;;;;5069252;28;20213;-76
2021/05/30 02:08:58;;;;;;;5.50;4.38;;;;;15.70;102690.00;;;;5075261;28;20234;-76
2021/05/30 02:11:26;;;;;;;5.38;4.20;;;;;15.70;102690.00;;;;5088982;28;20190;-76
2021/05/30 02:13:53;;;;;;;4.93;4.07;;;;;15.60;102694.00;;;;5088969;28;20202;-76
2021/05/30 02:16:21;;;;;;;5.60;4.25;;;;;15.60;102689.00;;;;5085725;28;20266;-76
2021/05/30 02:18:48;;;;;;;5.82;4.20;;;;;15.60;102696.00;;;;5086203;28;20213;-76
2021/05/30 02:21:14;;;;;;;5.10;3.83;;;;;15.60;102686.00;;;;5086822;28;20194;-76
2021/05/30 02:23:41;;;;;;;4.80;3.95;;;;;15.60;102687.00;;;;5088887;28;20203;-76
2021/05/30 02:26:08;;;;;;;5.38;3.53;;;;;15.60;102689.00;;;;5089083;28;20683;-76
2021/05/30 02:28:35;;;;;;;6.70;4.68;;;;;15.50;102686.00;;;;5087145;28;20230;-76
2021/05/30 02:31:01;;;;;;;5.55;4.20;;;;;15.50;102689.00;;;;5088101;28;20202;-76
2021/05/30 02:33:29;;;;;;;5.35;3.25;;;;;15.50;102684.00;;;;5087619;28;20298;-76
2021/05/30 02:35:56;;;;;;;8.80;4.15;;;;;15.50;102682.00;;;;5088585;28;20240;-76
2021/05/30 02:38:23;;;;;;;7.20;3.97;;;;;15.50;102684.00;;;;5087279;28;20225;-76
2021/05/30 02:40:49;;;;;;;5.72;4.25;;;;;15.40;102679.00;;;;5087523;28;20203;-76
2021/05/30 02:43:16;;;;;;;7.03;4.28;;;;;15.50;102688.00;;;;5085912;28;20269;-76
2021/05/30 02:45:43;;;;;;;7.47;4.40;;;;;15.40;102682.00;;;;5076995;28;20904;-76
2021/05/30 02:48:10;;;;;;;6.15;3.63;;;;;15.40;102688.00;;;;5088300;28;20636;-76
2021/05/30 02:50:37;;;;;;;5.10;3.63;;;;;15.40;102676.00;;;;5081066;28;20202;-76
2021/05/30 02:53:04;;;;;;;6.85;4.45;;;;;15.40;102684.00;;;;5068797;28;20540;-76
2021/05/30 02:55:31;;;;;;;5.72;3.42;;;;;15.40;102689.00;;;;5081079;28;20201;-76
2021/05/30 02:57:57;;;;;;;7.20;4.60;;;;;15.30;102693.00;;;;5077471;28;20198;-76
2021/05/30 03:00:24;;;;;;;5.43;4.07;;;;;15.30;102683.00;;;;5094142;28;20191;-76
2021/05/30 03:02:51;;;;;;;5.55;4.00;;;;;15.30;102692.00;;;;5088143;28;20198;-76
2021/05/30 03:05:18;;;;;;;6.47;4.20;;;;;15.30;102695.00;;;;5092736;28;20189;-76
2021/05/30 03:07:45;;;;;;;5.88;4.15;;;;;15.30;102692.00;;;;5107153;28;20204;-76
2021/05/30 03:10:13;;;;;;;6.10;3.95;;;;;15.30;102697.00;;;;5086266;28;20287;-76
2021/05/30 03:12:40;;;;;;;6.32;3.90;;;;;15.30;102700.00;;;;5084350;28;20225;-76
2021/05/30 03:15:08;;;;;;;6.85;4.68;;;;;15.20;102704.00;;;;5089199;28;20208;-76
2021/05/30 03:17:34;;;;;;;6.50;4.07;;;;;15.20;102700.00;;;;5078764;28;20205;-77
2021/05/30 03:20:01;;;;;;;6.03;4.07;;;;;15.20;102701.00;;;;5093552;28;20285;-76
2021/05/30 03:22:28;;;;;;;4.43;3.67;;;;;15.20;102699.00;;;;5083688;28;20497;-76
2021/05/30 03:24:55;;;;;;;5.95;4.22;;;;;15.20;102705.00;;;;5088538;28;20566;-76
2021/05/30 03:27:22;;;;;;;4.53;3.65;;;;;15.20;102702.00;;;;5080227;28;20239;-76
2021/05/30 03:29:49;;;;;;;6.00;4.32;;;;;15.10;102702.00;;;;5083354;28;20222;-76
2021/05/30 03:32:16;;;;;;;6.25;3.70;;;;;15.10;102712.00;;;;5088964;28;20293;-76
2021/05/30 03:34:43;;;;;;;4.82;3.60;;;;;15.10;102699.00;;;;5084348;28;20640;-76
2021/05/30 03:37:10;;;;;;;4.70;4.05;;;;;15.10;102697.00;;;;5078713;28;20205;-76
2021/05/30 03:39:40;;;;;;;6.65;4.25;;;;;15.10;102698.00;;;;5073538;28;20971;-76
2021/05/30 03:42:13;;;;;;;4.70;3.90;;;;;15.00;102698.00;;;;5067443;28;20244;-76
2021/05/30 03:44:40;;;;;;;6.30;3.97;;;;;15.00;102693.00;;;;5079852;28;20202;-76
2021/05/30 03:47:07;;;;;;;6.15;4.45;;;;;15.00;102695.00;;;;5077691;28;20574;-76
2021/05/30 03:49:34;;;;;;;7.78;4.10;;;;;15.00;102691.00;;;;5081148;28;20221;-76
2021/05/30 03:52:01;;;;;;;6.75;3.95;;;;;15.00;102699.00;;;;5090674;28;20216;-76
2021/05/30 03:54:27;;;;;;;5.45;3.88;;;;;15.00;102698.00;;;;5096519;28;20193;-76
2021/05/30 03:56:54;;;;;;;5.85;4.05;;;;;15.00;102704.00;;;;5097938;28;20190;-76
2021/05/30 03:59:22;;;;;;;6.78;4.10;;;;;14.90;102703.00;;;;5083607;28;20203;-76
2021/05/30 04:01:48;;;;;;;5.55;3.92;;;;;15.00;102700.00;;;;5082285;28;21117;-76
2021/05/30 04:04:15;;;;;;;7.40;4.43;;;;;15.00;102697.00;;;;5081172;28;20205;-76
2021/05/30 04:06:42;;;;;;;5.35;3.90;;;;;15.00;102697.00;;;;5096164;28;20206;-75
2021/05/30 04:09:08;;;;;;;5.43;3.90;;;;;15.00;102696.00;;;;5086952;28;20230;-76
2021/05/30 04:11:35;;;;;;;5.10;3.67;;;;;15.00;102703.00;;;;5086635;28;20198;-76
2021/05/30 04:14:02;;;;;;;8.70;4.32;;;;;15.00;102700.00;;;;5089085;28;20194;-76
2021/05/30 04:16:29;;;;;;;4.50;3.60;;;;;15.00;102712.00;;;;5072202;28;20206;-76
2021/05/30 04:18:56;;;;;;;5.95;4.45;;;;;15.00;102706.00;;;;5075388;28;20195;-76
2021/05/30 04:21:23;;;;;;;6.70;4.35;;;;;15.10;102705.00;;;;5078897;28;20686;-76
2021/05/30 04:23:50;;;;;;;7.22;4.13;;;;;15.10;102700.00;;;;5079498;28;20726;-76
2021/05/30 04:26:16;;;;;;;5.97;4.53;;;;;15.10;102706.00;;;;5089978;28;20198;-76
2021/05/30 04:28:44;;;;;;;5.93;4.25;;;;;15.10;102703.00;;;;5073781;28;20300;-76
2021/05/30 04:31:12;;;;;;;6.43;4.15;;;;;15.10;102710.00;;;;5071391;28;20190;-76
2021/05/30 04:33:39;;;;;;;6.65;4.15;;;;;15.20;102700.00;;;;5072299;28;20223;-76
2021/05/30 04:36:06;;;;;;;6.43;4.63;;;;;15.20;102704.00;;;;5070025;28;20677;-76
2021/05/30 04:38:33;;;;;;;6.57;3.97;;;;;15.20;102703.00;;;;5076373;28;20194;-76
2021/05/30 04:41:00;;;;;;;6.50;4.85;;;;;15.20;102696.00;;;;5096435;28;20206;-76
2021/05/30 04:43:27;;;;;;;5.85;4.30;;;;;15.30;102706.00;;;;5089316;28;20671;-76
2021/05/30 04:45:54;;;;;;;5.55;4.28;;;;;15.30;102702.00;;;;5106380;28;20219;-76
2021/05/30 04:48:21;;;;;;;6.55;4.45;;;;;15.30;102697.00;;;;5092021;28;20275;-76
2021/05/30 04:51:05;;;;;;;6.50;4.53;;;;;15.30;102705.00;;;;5084486;28;20673;-76
2021/05/30 04:53:32;;;;;;;4.90;3.90;;;;;15.40;102698.00;;;;5107180;28;20676;-76
2021/05/30 04:56:01;;;;;;;6.63;4.35;;;;;15.40;102705.00;;;;5081447;28;20210;-76
2021/05/30 04:58:28;;;;;;;4.93;3.78;;;;;15.50;102697.00;;;;5086569;28;20207;-76
2021/05/30 05:00:55;;;;;;;5.93;3.80;;;;;15.50;102703.00;;;;5086589;28;20205;-75
2021/05/30 05:03:22;;;;;;;4.68;4.00;;;;;15.50;102705.00;;;;5086318;28;20195;-76
2021/05/30 05:05:53;;;;;;;5.95;3.97;;;;;15.50;102706.00;;;;5091602;28;20207;-76
2021/05/30 05:08:20;;;;;;;4.65;3.88;;;;;15.60;102706.00;;;;5102177;28;20261;-76
2021/05/30 05:10:47;;;;;;;5.45;3.70;;;;;15.60;102711.00;;;;5085926;28;20226;-76
2021/05/30 05:13:14;;;;;;;5.28;4.15;;;;;15.60;102707.00;;;;5070868;28;20199;-76
2021/05/30 05:15:43;;;;;;;5.60;3.85;;;;;15.70;102706.00;;;;5070653;28;20198;-76
2021/05/30 05:18:15;;;;;;;5.22;4.28;;;;;15.70;102712.00;;;;5070518;28;20755;-76
2021/05/30 05:20:42;;;;;;;7.10;4.57;;;;;15.80;102709.00;;;;5079834;28;20198;-76
2021/05/30 05:23:11;;;;;;;6.47;4.32;;;;;15.80;102704.00;;;;5089203;28;20202;-76
2021/05/30 05:25:37;;;;;;;4.47;3.53;;;;;15.90;102702.00;;;;5076107;28;20202;-76
2021/05/30 05:28:05;;;;;;;9.98;4.57;;;;;15.90;102708.00;;;;5080149;28;20202;-77
2021/05/30 05:30:32;;;;;;;5.97;4.20;;;;;15.90;102699.00;;;;5069329;28;20199;-76
2021/05/30 05:33:00;;;;;;;7.05;3.75;;;;;16.00;102705.00;;;;5072776;28;20207;-75
2021/05/30 05:35:27;;;;;;;5.43;4.38;;;;;16.00;102704.00;;;;5070094;28;20198;-75
2021/05/30 05:37:55;;;;;;;5.50;4.07;;;;;16.00;102703.00;;;;5075532;28;20191;-76
2021/05/30 05:40:23;;;;;;;5.40;4.22;;;;;16.10;102702.00;;;;5080472;28;20205;-75
2021/05/30 05:42:51;;;;;;;6.15;4.40;;;;;16.20;102707.00;;;;5077085;28;20198;-76
2021/05/30 05:45:18;;;;;;;6.47;4.65;;;;;16.20;102704.00;;;;5073702;28;20582;-77
2021/05/30 05:47:45;;;;;;;7.70;4.45;;;;;16.30;102707.00;;;;5082243;28;20202;-76
2021/05/30 05:50:13;;;;;;;5.55;4.03;;;;;16.30;102703.00;;;;5075682;28;20246;-77
2021/05/30 05:52:40;;;;;;;5.20;4.68;;;;;16.40;102705.00;;;;5083950;28;20198;-76
2021/05/30 05:55:09;;;;;;;5.43;4.18;;;;;16.40;102710.00;;;;5083936;28;20198;-76
2021/05/30 05:57:37;;;;;;;6.70;4.10;;;;;16.40;102710.00;;;;5079796;28;20198;-76
2021/05/30 06:00:06;;;;;;;9.00;4.82;;;;;16.50;102708.00;;;;5078644;28;20218;-76
2021/05/30 06:02:32;;;;;;;5.50;4.35;;;;;16.50;102712.00;;;;5073735;28;20214;-76
2021/05/30 06:04:59;;;;;;;6.38;4.28;;;;;16.60;102703.00;;;;5075980;28;20199;-76
2021/05/30 06:07:26;;;;;;;7.00;4.90;;;;;16.70;102706.00;;;;5076350;28;20206;-76
2021/05/30 06:09:53;;;;;;;6.30;4.40;;;;;16.80;102702.00;;;;5075338;28;20708;-76
2021/05/30 06:12:20;;;;;;;6.20;4.55;;;;;16.80;102702.00;;;;5076360;28;20194;-76
2021/05/30 06:14:47;;;;;;;6.20;4.43;;;;;16.90;102711.00;;;;5075877;28;20199;-75
2021/05/30 06:17:14;;;;;;;7.55;5.63;;;;;17.00;102707.00;;;;5076378;28;20191;-75
2021/05/30 06:19:41;;;;;;;7.85;4.97;;;;;17.10;102706.00;;;;5071531;28;20272;-76
2021/05/30 06:22:08;;;;;;;6.88;5.20;;;;;17.10;102706.00;;;;5081202;28;20206;-77
2021/05/30 06:24:36;;;;;;;9.23;5.35;;;;;17.20;102711.00;;;;5079642;28;20207;-78
2021/05/30 06:27:04;;;;;;;7.10;4.88;;;;;17.20;102707.00;;;;5069531;28;20600;-78
2021/05/30 06:29:31;;;;;;;7.43;4.72;;;;;17.30;102714.00;;;;5068555;28;20226;-79
2021/05/30 06:31:58;;;;;;;7.68;4.80;;;;;17.40;102708.00;;;;5075446;28;20206;-79
2021/05/30 06:34:26;;;;;;;7.30;4.88;;;;;17.40;102717.00;;;;5068681;28;20264;-80
2021/05/30 06:36:53;;;;;;;5.38;4.65;;;;;17.50;102720.00;;;;5072410;28;20221;-79
2021/05/30 06:39:20;;;;;;;6.43;5.15;;;;;17.60;102718.00;;;;5067514;28;20203;-79
2021/05/30 06:41:47;;;;;;;5.25;4.22;;;;;17.70;102717.00;;;;5083880;28;20209;-79
2021/05/30 06:44:14;;;;;;;5.25;4.30;;;;;17.70;102727.00;;;;5073896;28;20194;-79
2021/05/30 06:46:41;;;;;;;6.95;5.20;;;;;17.80;102720.00;;;;5086875;28;20186;-78
2021/05/30 06:49:08;;;;;;;7.45;4.68;;;;;17.90;102723.00;;;;5069139;28;20276;-78
2021/05/30 06:51:35;;;;;;;10.48;5.40;;;;;18.00;102722.00;;;;5068815;28;20199;-80
2021/05/30 06:54:04;;;;;;;7.28;5.25;;;;;18.00;102717.00;;;;5074387;28;20205;-79
2021/05/30 06:56:31;;;;;;;6.53;5.00;;;;;18.10;102722.00;;;;5070667;28;20206;-79
2021/05/30 06:58:59;;;;;;;7.47;5.35;;;;;18.20;102722.00;;;;5068544;28;20202;-79
2021/05/30 07:01:26;;;;;;;7.63;5.80;;;;;18.30;102730.00;;;;5067338;28;20556;-79
2021/05/30 07:03:53;;;;;;;10.90;5.32;;;;;18.40;102723.00;;;;5068433;28;20207;-79
2021/05/30 07:06:22;;;;;;;7.15;4.82;;;;;18.50;102720.00;;;;5066774;28;20198;-79
2021/05/30 07:08:50;;;;;;;8.25;5.85;;;;;18.60;102723.00;;;;5071272;28;20260;-80
2021/05/30 07:11:16;;;;;;;7.50;5.55;;;;;18.70;102723.00;;;;5071235;28;20202;-79
2021/05/30 07:13:43;;;;;;;7.85;5.22;;;;;18.80;102724.00;;;;5072347;28;20210;-80
2021/05/30 07:16:10;;;;;;;8.00;5.38;;;;;18.90;102730.00;;;;5084150;28;20198;-79
2021/05/30 07:18:37;;;;;;;8.93;5.68;;;;;19.00;102727.00;;;;5079666;28;20214;-79
2021/05/30 07:21:04;;;;;;;7.68;5.13;;;;;19.10;102730.00;;;;5080117;28;20660;-77
2021/05/30 07:23:32;;;;;;;7.93;6.72;;;;;19.20;102729.00;;;;5084319;28;20198;-77
2021/05/30 07:26:00;;;;;;;6.97;5.88;;;;;19.30;102731.00;;;;5081816;28;20202;-78
2021/05/30 07:28:27;;;;;;;6.68;5.18;;;;;19.40;102731.00;;;;5084228;28;20231;-79
2021/05/30 07:30:54;;;;;;;8.77;5.88;;;;;19.50;102732.00;;;;5072684;28;20203;-79
2021/05/30 07:33:21;;;;;;;6.95;5.68;;;;;19.60;102727.00;;;;5079201;28;20271;-79
2021/05/30 07:35:47;;;;;;;6.93;5.45;;;;;19.70;102734.00;;;;5087597;28;20206;-80
2021/05/30 07:38:15;;;;;;;7.80;5.60;;;;;19.80;102736.00;;;;5076490;28;20199;-82
2021/05/30 07:40:43;;;;;;;9.98;6.53;;;;;19.90;102734.00;;;;5067148;28;20213;-80
2021/05/30 07:43:10;;;;;;;6.60;5.45;;;;;20.00;102729.00;;;;5068153;28;20198;-81
2021/05/30 07:45:36;;;;;;;6.55;5.57;;;;;20.10;102737.00;;;;5070004;28;20672;-79
2021/05/30 07:48:04;;;;;;;9.30;6.18;;;;;20.20;102736.00;;;;5071930;28;20202;-80
2021/05/30 07:50:31;;;;;;;8.95;5.90;;;;;20.40;102729.00;;;;5070538;28;20205;-80
2021/05/30 07:52:57;;;;;;;6.82;5.38;;;;;20.50;102732.00;;;;5072095;28;20214;-81
2021/05/30 07:55:24;;;;;;;7.32;5.95;;;;;20.60;102729.00;;;;5073028;28;20217;-81
2021/05/30 07:57:52;;;;;;;7.55;6.55;;;;;20.80;102732.00;;;;5071730;28;20797;-80
2021/05/30 08:00:19;;;;;;;7.47;5.97;;;;;20.90;102732.00;;;;5071263;28;20207;-80
2021/05/30 08:02:48;;;;;;;7.65;6.43;;;;;21.10;102735.00;;;;5081301;28;20207;-80
2021/05/30 08:05:18;;;;;;;7.18;6.00;;;;;21.20;102736.00;;;;5071460;28;20199;-80
2021/05/30 08:07:45;;;;;;;7.75;5.97;;;;;21.40;102736.00;;;;5071138;28;20206;-78
2021/05/30 08:10:13;;;;;;;11.90;6.93;;;;;21.50;102736.00;;;;5071303;28;20840;-78
2021/05/30 08:12:40;;;;;;;8.15;6.68;;;;;21.70;102733.00;;;;5071509;28;20207;-78
2021/05/30 08:15:09;;;;;;;8.52;6.53;;;;;21.80;102733.00;;;;5077386;28;20199;-78
2021/05/30 08:17:37;;;;;;;8.25;6.88;;;;;21.90;102732.00;;;;5079140;28;20255;-78
2021/05/30 08:20:06;;;;;;;8.20;6.82;;;;;22.10;102733.00;;;;5085459;28;20194;-78
2021/05/30 08:22:33;;;;;;;12.00;6.75;;;;;22.20;102730.00;;;;5083789;28;20209;-77
2021/05/30 08:25:00;;;;;;;7.65;6.20;;;;;22.40;102736.00;;;;5085675;28;20210;-78
2021/05/30 08:27:27;;;;;;;9.50;7.63;;;;;22.50;102736.00;;;;5076885;28;20191;-78
2021/05/30 08:29:54;;;;;;;8.52;6.68;;;;;22.70;102733.00;;;;5074834;28;20226;-77
2021/05/30 08:32:22;;;;;;;10.05;8.02;;;;;22.80;102733.00;;;;5075875;28;20215;-78
2021/05/30 08:34:49;;;;;;;8.95;7.50;;;;;22.90;102727.00;;;;5087112;28;20237;-77
2021/05/30 08:37:20;;;;;;;7.60;6.82;;;;;23.10;102728.00;;;;5081422;28;20231;-77
2021/05/30 08:39:48;;;;;;;8.55;6.93;;;;;23.20;102723.00;;;;5086269;28;20331;-78
2021/05/30 08:42:14;;;;;;;9.65;7.15;;;;;23.30;102728.00;;;;5085625;28;20198;-78
2021/05/30 08:44:41;;;;;;;9.00;7.05;;;;;23.50;102719.00;;;;5081365;28;20186;-76
2021/05/30 08:47:08;;;;;;;9.80;6.90;;;;;23.60;102733.00;;;;5077143;28;20199;-74
2021/05/30 08:49:35;;;;;;;7.35;6.60;;;;;23.70;102722.00;;;;5070752;28;20272;-74
2021/05/30 08:52:02;;;;;;;8.80;7.38;;;;;23.80;102731.00;;;;5072540;28;20268;-74
2021/05/30 08:54:31;;;;;;;9.57;7.55;;;;;23.90;102732.00;;;;5083311;28;20203;-74
2021/05/30 08:56:58;;;;;;;9.35;7.78;;;;;24.10;102735.00;;;;5072784;28;20194;-75
2021/05/30 08:59:29;;;;;;;12.40;7.50;;;;;24.20;102731.00;;;;5087807;28;20194;-75
2021/05/30 09:01:59;;;;;;;8.68;6.45;;;;;24.30;102741.00;;;;5070890;28;20203;-75
2021/05/30 09:04:33;;;;;;;10.20;7.60;;;;;24.40;102733.00;;;;5081813;28;20245;-75
2021/05/30 09:07:01;;;;;;;9.32;8.18;;;;;24.50;102732.00;;;;5078874;28;20627;-75
2021/05/30 09:09:37;;;;;;;9.30;7.90;;;;;24.60;102732.00;;;;5080337;28;20231;-75
2021/05/30 09:12:04;;;;;;;7.35;6.22;;;;;24.80;102731.00;;;;5071435;28;20202;-75
2021/05/30 09:14:41;;;;;;;8.55;6.60;;;;;24.80;102730.00;;;;5070303;28;20195;-75
2021/05/30 09:17:10;;;;;;;8.15;7.32;;;;;25.00;102732.00;;;;5074773;28;20191;-75
2021/05/30 09:19:43;;;;;;;8.05;6.60;;;;;25.10;102736.00;;;;5076820;28;20248;-76
2021/05/30 09:22:22;;;;;;;9.10;7.07;;;;;25.20;102737.00;;;;5069994;28;20198;-76
2021/05/30 09:25:03;;;;;;;8.40;6.55;;;;;25.40;102733.00;;;;5069694;28;20282;-75
2021/05/30 09:27:29;;;;;;;10.25;7.57;;;;;25.60;102729.00;;;;5081260;28;20198;-75
2021/05/30 09:30:12;;;;;;;7.90;6.53;;;;;25.70;102732.00;;;;5075816;28;20600;-76
2021/05/30 09:33:02;;;;;;;7.72;6.53;;;;;25.80;102721.00;;;;5090524;28;20218;-75
2021/05/30 09:35:43;;;;;;;6.88;6.18;;;;;26.00;102725.00;;;;5091845;28;20220;-76
2021/05/30 09:38:14;;;;;;;6.00;5.40;;;;;26.10;102730.00;;;;5101204;28;20210;-76
2021/05/30 09:40:42;;;;;;;6.88;6.18;;;;;26.20;102718.00;;;;5088641;28;20672;-79
2021/05/30 09:43:11;;;;;;;6.30;5.68;;;;;26.30;102725.00;;;;5086418;28;20207;-77
2021/05/30 09:45:39;;;;;;;7.72;6.25;;;;;26.40;102718.00;;;;5088409;28;20199;-76
2021/05/30 09:48:17;;;;;;;6.72;5.70;;;;;26.40;102718.00;;;;5078700;28;20259;-76
2021/05/30 09:51:02;;;;;;;6.35;5.13;;;;;26.60;102715.00;;;;5072732;28;20590;-76
2021/05/30 09:53:31;;;;;;;6.00;5.18;;;;;26.70;102722.00;;;;5067718;28;20203;-77
2021/05/30 09:55:57;;;;;;;6.70;5.22;;;;;26.70;102718.00;;;;5074008;28;20210;-77
2021/05/30 09:58:24;;;;;;;7.95;5.32;;;;;26.80;102709.00;;;;5077679;28;20671;-77
2021/05/30 10:01:04;;;;;;;7.10;4.93;;;;;26.80;102716.00;;;;5076282;28;20665;-77
2021/05/30 10:03:31;;;;;;;6.78;5.50;;;;;27.00;102711.00;;;;5072708;28;20198;-77
2021/05/30 10:06:00;;;;;;;6.22;5.38;;;;;27.10;102708.00;;;;5072476;28;20190;-79
2021/05/30 10:08:29;;;;;;;5.30;4.80;;;;;27.20;102703.00;;;;5072439;28;20207;-79
2021/05/30 10:10:57;;;;;;;6.70;4.90;;;;;27.30;102705.00;;;;5086272;28;20245;-79
2021/05/30 10:13:23;;;;;;;6.53;4.55;;;;;27.40;102703.00;;;;5078807;28;20205;-77
2021/05/30 10:15:50;;;;;;;5.90;4.80;;;;;27.50;102696.00;;;;5069526;28;20202;-79
2021/05/30 10:18:22;;;;;;;5.35;4.15;;;;;27.50;102694.00;;;;5080704;28;20194;-79
2021/05/30 10:20:51;;;;;;;8.65;4.50;;;;;27.60;102689.00;;;;5089108;28;20268;-79
2021/05/30 10:23:21;;;;;;;4.38;3.85;;;;;27.60;102698.00;;;;5089290;28;20288;-79
2021/05/30 10:25:50;;;;;;;4.68;4.00;;;;;27.70;102698.00;;;;5089613;28;20684;-79
2021/05/30 10:28:18;;;;;;;7.88;4.93;;;;;27.80;102694.00;;;;5083369;28;20194;-80
2021/05/30 10:30:47;;;;;;;5.13;4.03;;;;;27.80;102699.00;;;;5086726;28;20209;-79
2021/05/30 10:33:17;;;;;;;4.22;3.72;;;;;27.90;102700.00;;;;5075761;28;20215;-77
2021/05/30 10:35:47;;;;;;;6.45;4.20;;;;;27.90;102702.00;;;;5083630;28;20209;-77
2021/05/30 10:38:36;;;;;;;4.70;3.72;;;;;27.90;102700.00;;;;5087458;28;20203;-75
2021/05/30 10:41:15;;;;;;;5.55;3.63;;;;;28.00;102698.00;;;;5089488;28;20202;-76
2021/05/30 10:43:42;;;;;;;4.85;3.90;;;;;28.10;102696.00;;;;5088813;28;20205;-75
2021/05/30 10:46:09;;;;;;;4.78;3.70;;;;;28.10;102694.00;;;;5069317;28;20207;-75
2021/05/30 10:48:37;;;;;;;4.95;3.30;;;;;28.20;102693.00;;;;5070185;28;20194;-76
2021/05/30 10:51:30;;;;;;;4.47;3.58;;;;;28.10;102694.00;;;;5088252;28;20221;-78
2021/05/30 10:54:11;;;;;;;4.35;3.10;;;;;28.20;102689.00;;;;5081282;28;20760;-75
2021/05/30 10:56:40;;;;;;;3.03;2.75;;;;;28.30;102689.00;;;;5069064;28;20195;-75
2021/05/30 10:59:25;;;;;;;3.33;2.50;;;;;28.20;102684.00;;;;5068582;28;20199;-75
2021/05/30 11:01:53;;;;;;;5.38;2.78;;;;;28.40;102677.00;;;;5068779;28;20187;-76
2021/05/30 11:04:31;;;;;;;3.92;2.67;;;;;28.30;102683.00;;;;5068071;28;20225;-78
2021/05/30 11:06:59;;;;;;;3.00;2.70;;;;;28.40;102677.00;;;;5069066;28;20199;-78
2021/05/30 11:10:01;;;;;;;3.75;2.40;;;;;28.40;102671.00;;;;5068561;28;20242;-79
2021/05/30 11:12:30;;;;;;;3.50;2.60;;;;;28.50;102671.00;;;;5070649;28;20204;-78
2021/05/30 11:15:29;;;;;;;2.17;1.95;;;;;28.50;102668.00;;;;5077891;28;20247;-78
2021/05/30 11:17:57;;;;;;;4.13;2.10;;;;;28.60;102664.00;;;;5068420;28;20198;-79
2021/05/30 11:20:27;;;;;;;2.90;2.15;;;;;28.60;102654.00;;;;5067970;28;20198;-77
2021/05/30 11:22:58;;;;;;;2.90;2.03;;;;;28.60;102653.00;;;;5067418;28;20735;-78
2021/05/30 11:25:31;;;;;;;2.35;1.73;;;;;28.60;102649.00;;;;5069672;28;20651;-76
2021/05/30 11:28:00;;;;;;;3.60;2.20;;;;;28.70;102657.00;;;;5067505;28;20226;-75
2021/05/30 11:30:44;;;;;;;2.17;1.98;;;;;28.60;102645.00;;;;5068140;28;20218;-76
2021/05/30 11:33:13;;;;;;;2.90;1.92;;;;;28.70;102641.00;;;;5067713;28;20260;-76
2021/05/30 11:35:40;;;;;;;1.55;1.45;;;;;28.70;102640.00;;;;5068266;28;20203;-75
2021/05/30 11:38:07;;;;;;;2.05;1.52;;;;;28.80;102632.00;;;;5068517;28;20210;-74
2021/05/30 11:40:35;;;;;;;2.00;1.80;;;;;28.80;102633.00;;;;5067249;28;20794;-75
2021/05/30 11:43:16;;;;;;;1.85;1.70;;;;;28.80;102622.00;;;;5068248;28;20251;-77
2021/05/30 11:45:45;;;;;;;1.40;1.02;;;;;28.90;102625.00;;;;5077485;28;20190;-76
2021/05/30 11:48:14;;;;;;;1.55;1.30;;;;;28.90;102628.00;;;;5075603;28;20203;-75
2021/05/30 11:50:50;;;;;;;3.33;1.70;;;;;28.90;102627.00;;;;5071752;28;20227;-75
2021/05/30 11:53:26;;;;;;;1.20;1.08;;;;;28.90;102617.00;;;;5071264;28;20207;-76
2021/05/30 11:55:53;;;;;;;2.33;1.40;;;;;29.00;102620.00;;;;5068289;28;20760;-76
2021/05/30 11:58:21;;;;;;;1.40;1.13;;;;;29.00;102624.00;;;;5069534;28;20198;-76
2021/05/30 12:00:53;;;;;;;1.17;1.08;;;;;29.00;102622.00;;;;5082425;28;20205;-75
2021/05/30 12:03:20;;;;;;;2.08;1.20;;;;;29.00;102625.00;;;;5086954;28;20252;-75
2021/05/30 12:05:46;;;;;;;1.55;1.10;;;;;29.00;102618.00;;;;5087528;28;20198;-75
2021/05/30 12:08:17;;;;;;;1.42;1.33;;;;;29.00;102614.00;;;;5087281;28;20263;-74
2021/05/30 12:10:53;;;;;;;3.08;1.33;;;;;29.00;102620.00;;;;5070048;28;20834;-75
2021/05/30 12:13:33;;;;;;;1.40;1.02;;;;;29.00;102621.00;;;;5074707;28;20244;-75
2021/05/30 12:16:14;;;;;;;2.17;1.48;;;;;29.00;102609.00;;;;5074176;28;20216;-74
2021/05/30 12:18:54;;;;;;;1.50;1.38;;;;;29.00;102616.00;;;;5069883;28;20327;-75